Pagrindinis puslapis
METAR-TAF:

METAR-TAF

Oro uostai :

Esbjergas, Danija

platuma: 55-32N, ilguma: 008-34E, Aukštis: 30 m

Dabartinis oras

Ataskaita buvo paskelbta 47 minutes, ne 11:50 UTC
Vėjas 9 kt iš Vakarų, svyruoja nuo Vakarų/Pietvakarių ir Šiaurės Vakarų
Temperatūra 8°C
Drėgmė 57%
Slėgis 1018 hPa
Matomumas 10 km arba daugiau

METAR: EKEB 201150Z AUTO 28009KT 250V310 9999 FEW041/// BKN062/// 08/M00 Q1018

Laikas: 14:37 (12:37 UTC)

Prognozė

Ataskaita buvo paskelbta 1 valandą ir 14 minutes, ne 11:23 UTC
Prognozė galioja nuo 20 metu 12 UTC su 20 metu 21 UTC
Vėjas 8 kt iš Šiaurės/Šiaurės Vakarų
Matomumas 10 km arba daugiau
Išsisklaidę debesys ne aukštis 3000 ft
Laikinai
nuo 20 metu 12 UTC su 20 metu 21 UTC
Išsisklaidę debesys ne aukštis 2000 ft, Liūtiniai kamuoliniai debesys.
lietus,

TAF: EKEB 201123Z 2012/2021 33008KT 9999 SCT030 TEMPO 2012/2021 SHRA SCT020CB

Orai ataskaitas ir orų prognozės (METAR, TAF).

turimą stotys yra geltonos ir raudonos taškus žemėlapyje.

Perkelti pele per norėdami pamatyti stoties vardą.

Tada spustelėkite, norėdami matyti oro stebėjimo ir prognozės.

Norėdami pakeisti žemėlapį: spustelėkite ant žalios mygtukų su juodo kryžiaus žemyn,; žalią mygtuką su brūkšneliu, jei norite nutolinti; arba žalių rodyklių gretimoms žemėlapius.


METAR-TAF: